Time;durP1;ratioP1;P1;durP2;ratioP2;P2;SDS_P1;SDS_P2;PMS_P1;PMS_P2;Temp;Humidity;BMP_temperature;BMP_pressure;BME280_temperature;BME280_humidity;BME280_pressure;Samples;Min_cycle;Max_cycle;Signal;HPM_P1;HPM_P2
2022/06/19 00:01:41;;;;;;;9.02;1.90;;;;;;;;;;6201965;23;20020;-66
2022/06/19 00:04:08;;;;;;;7.60;1.70;;;;;;;;;;6183978;23;20377;-66
2022/06/19 00:06:35;;;;;;;13.10;2.35;;;;;;;;;;6195623;23;20106;-66
2022/06/19 00:09:03;;;;;;;13.05;2.60;;;;;;;;;;6190898;23;20031;-65
2022/06/19 00:11:29;;;;;;;12.32;2.28;;;;;;;;;;6200874;23;20122;-66
2022/06/19 00:13:56;;;;;;;12.38;2.08;;;;;;;;;;6203533;23;20104;-65
2022/06/19 00:16:22;;;;;;;8.88;2.03;;;;;;;;;;6193294;23;20131;-66
2022/06/19 00:18:48;;;;;;;8.15;1.88;;;;;;;;;;6193591;23;20239;-65
2022/06/19 00:21:16;;;;;;;13.43;2.35;;;;;;;;;;6189331;22;20021;-65
2022/06/19 00:23:43;;;;;;;11.00;1.97;;;;;;;;;;6202269;23;20533;-66
2022/06/19 00:26:09;;;;;;;13.23;2.47;;;;;;;;;;6190580;23;20246;-66
2022/06/19 00:28:35;;;;;;;10.73;1.98;;;;;;;;;;6201121;23;20111;-66
2022/06/19 00:31:02;;;;;;;8.98;1.77;;;;;;;;;;6194261;23;20043;-66
2022/06/19 00:33:28;;;;;;;7.43;1.75;;;;;;;;;;6185200;23;20028;-66
2022/06/19 00:35:54;;;;;;;11.10;2.13;;;;;;;;;;6201689;23;20025;-66
2022/06/19 00:38:21;;;;;;;9.80;2.17;;;;;;;;;;6193919;23;20111;-67
2022/06/19 00:40:47;;;;;;;9.90;1.95;;;;;;;;;;6201366;23;20030;-66
2022/06/19 00:43:14;;;;;;;8.65;2.05;;;;;;;;;;6194423;23;20107;-66
2022/06/19 00:45:50;;;;;;;9.98;1.80;;;;;;;;;;6192961;23;20024;-66
2022/06/19 00:48:22;;;;;;;11.02;1.90;;;;;;;;;;6194794;23;20032;-66
2022/06/19 00:50:50;;;;;;;10.95;2.22;;;;;;;;;;6191314;23;20028;-65
2022/06/19 00:53:18;;;;;;;14.77;2.30;;;;;;;;;;6201358;23;20425;-66
2022/06/19 00:55:45;;;;;;;7.05;1.45;;;;;;;;;;6189944;23;20458;-65
2022/06/19 00:58:17;;;;;;;12.23;1.75;;;;;;;;;;6200879;23;20467;-66
2022/06/19 01:00:45;;;;;;;10.68;1.92;;;;;;;;;;6183042;23;20059;-66
2022/06/19 01:03:16;;;;;;;10.75;1.98;;;;;;;;;;6196238;23;20111;-65
2022/06/19 01:05:44;;;;;;;8.50;1.67;;;;;;;;;;6201104;23;20021;-65
2022/06/19 01:08:11;;;;;;;12.87;2.40;;;;;;;;;;6191146;23;20021;-65
2022/06/19 01:10:40;;;;;;;8.85;1.65;;;;;;;;;;6200963;23;20119;-66
2022/06/19 01:13:07;;;;;;;12.35;2.13;;;;;;;;;;6184107;23;20020;-64
2022/06/19 01:15:33;;;;;;;11.45;2.05;;;;;;;;;;6195928;23;20026;-65
2022/06/19 01:18:02;;;;;;;11.45;1.80;;;;;;;;;;6200639;23;20021;-66
2022/06/19 01:20:30;;;;;;;9.50;2.00;;;;;;;;;;6191014;23;20147;-65
2022/06/19 01:23:01;;;;;;;11.20;2.15;;;;;;;;;;6200846;23;20031;-66
2022/06/19 01:25:31;;;;;;;9.18;1.70;;;;;;;;;;6192134;23;20027;-66
2022/06/19 01:30:46;;;;;;;10.50;1.90;;;;;;;;;;6182575;23;20111;-66
2022/06/19 01:33:17;;;;;;;14.73;2.15;;;;;;;;;;6199279;23;20135;-66
2022/06/19 01:35:45;;;;;;;11.40;1.80;;;;;;;;;;6191634;23;20532;-65
2022/06/19 01:38:13;;;;;;;12.15;1.90;;;;;;;;;;6198533;23;20030;-66
2022/06/19 01:40:40;;;;;;;10.07;2.33;;;;;;;;;;6197618;23;20035;-65
2022/06/19 01:43:07;;;;;;;10.03;2.00;;;;;;;;;;6180778;23;20024;-65
2022/06/19 01:45:35;;;;;;;11.95;1.98;;;;;;;;;;6200276;23;20399;-66
2022/06/19 01:48:02;;;;;;;11.70;1.98;;;;;;;;;;6190087;23;20043;-65
2022/06/19 01:50:30;;;;;;;10.60;2.00;;;;;;;;;;6200113;23;20112;-66
2022/06/19 01:53:01;;;;;;;11.55;2.08;;;;;;;;;;6201247;23;20132;-66
2022/06/19 01:55:28;;;;;;;8.40;1.50;;;;;;;;;;6185387;23;20025;-66
2022/06/19 01:57:56;;;;;;;8.98;1.70;;;;;;;;;;6195175;23;20024;-65
2022/06/19 02:00:27;;;;;;;8.65;2.25;;;;;;;;;;6189738;23;20443;-66
2022/06/19 02:03:11;;;;;;;9.00;1.90;;;;;;;;;;6199694;23;20124;-67
2022/06/19 02:05:39;;;;;;;12.15;1.85;;;;;;;;;;6189521;23;20131;-66
2022/06/19 02:08:06;;;;;;;11.47;1.93;;;;;;;;;;6200416;23;20020;-67
2022/06/19 02:10:34;;;;;;;8.30;1.65;;;;;;;;;;6183416;23;20035;-65
2022/06/19 02:13:01;;;;;;;11.25;1.60;;;;;;;;;;6195310;23;20099;-66
2022/06/19 02:15:28;;;;;;;9.85;1.58;;;;;;;;;;6198701;23;20360;-66
2022/06/19 02:17:55;;;;;;;8.63;1.77;;;;;;;;;;6189642;23;20025;-66
2022/06/19 02:20:21;;;;;;;8.55;1.38;;;;;;;;;;6198696;23;20103;-67
2022/06/19 02:22:48;;;;;;;11.88;1.92;;;;;;;;;;6187181;23;20025;-65
2022/06/19 02:25:14;;;;;;;7.05;1.80;;;;;;;;;;6191008;23;20265;-66
2022/06/19 02:27:41;;;;;;;9.85;1.65;;;;;;;;;;6199671;23;20020;-67
2022/06/19 02:30:09;;;;;;;9.15;1.67;;;;;;;;;;6186822;23;20524;-66
2022/06/19 02:32:47;;;;;;;6.90;1.40;;;;;;;;;;6201081;23;20681;-66
2022/06/19 02:35:15;;;;;;;9.07;1.55;;;;;;;;;;6188951;22;20028;-67
2022/06/19 02:37:45;;;;;;;8.73;1.75;;;;;;;;;;6192820;23;20027;-66
2022/06/19 02:40:30;;;;;;;8.07;1.52;;;;;;;;;;6183609;23;20470;-66
2022/06/19 02:42:57;;;;;;;9.13;1.83;;;;;;;;;;6200987;23;20379;-66
2022/06/19 02:45:25;;;;;;;9.80;1.88;;;;;;;;;;6200574;23;20446;-65
2022/06/19 02:47:51;;;;;;;;;;;;;;;;;;6191010;23;20021;-66
2022/06/19 02:50:19;;;;;;;8.85;1.70;;;;;;;;;;6199433;23;20002;-66
2022/06/19 02:52:47;;;;;;;7.63;1.83;;;;;;;;;;6181971;23;20020;-66
2022/06/19 02:55:14;;;;;;;16.50;2.00;;;;;;;;;;6196860;23;20080;-66
2022/06/19 02:57:41;;;;;;;12.27;1.75;;;;;;;;;;6189745;23;20028;-66
2022/06/19 03:00:09;;;;;;;10.57;2.13;;;;;;;;;;6198914;23;20025;-66
2022/06/19 03:02:35;;;;;;;6.13;1.40;;;;;;;;;;6199587;23;20024;-66
2022/06/19 03:05:03;;;;;;;8.70;1.60;;;;;;;;;;6185296;22;20028;-66
2022/06/19 03:07:30;;;;;;;8.60;1.38;;;;;;;;;;6190693;23;20765;-66
2022/06/19 03:09:56;;;;;;;7.55;1.60;;;;;;;;;;6189804;22;20131;-66
2022/06/19 03:12:23;;;;;;;9.07;2.00;;;;;;;;;;6199642;23;20750;-65
2022/06/19 03:14:49;;;;;;;8.93;1.50;;;;;;;;;;6189581;23;20095;-66
2022/06/19 03:17:17;;;;;;;8.38;1.40;;;;;;;;;;6198443;23;20413;-66
2022/06/19 03:19:49;;;;;;;10.63;1.48;;;;;;;;;;6193962;23;20514;-66
2022/06/19 03:22:16;;;;;;;7.50;1.52;;;;;;;;;;6182725;23;20021;-67
2022/06/19 03:24:42;;;;;;;7.75;1.55;;;;;;;;;;6199266;23;20025;-67
2022/06/19 03:27:10;;;;;;;7.30;1.30;;;;;;;;;;6189709;23;20370;-66
2022/06/19 03:29:36;;;;;;;11.68;1.48;;;;;;;;;;6201101;23;20450;-67
2022/06/19 03:32:03;;;;;;;8.10;1.55;;;;;;;;;;6190226;23;20020;-67
2022/06/19 03:34:30;;;;;;;6.70;0.98;;;;;;;;;;6192009;23;20021;-66
2022/06/19 03:36:56;;;;;;;5.70;1.25;;;;;;;;;;6197922;23;20353;-66
2022/06/19 03:39:24;;;;;;;8.32;1.50;;;;;;;;;;6193055;22;20030;-67
2022/06/19 03:41:50;;;;;;;8.32;1.20;;;;;;;;;;6202034;23;20076;-66
2022/06/19 03:44:16;;;;;;;6.75;1.30;;;;;;;;;;6190215;23;20028;-67
2022/06/19 03:46:43;;;;;;;6.68;1.10;;;;;;;;;;6197359;23;20028;-67
2022/06/19 03:49:09;;;;;;;7.43;0.93;;;;;;;;;;6192574;23;20754;-67
2022/06/19 03:51:35;;;;;;;7.38;1.17;;;;;;;;;;6190394;23;20025;-66
2022/06/19 03:54:03;;;;;;;10.35;1.50;;;;;;;;;;6202325;23;20020;-66
2022/06/19 03:56:31;;;;;;;6.38;1.15;;;;;;;;;;6194818;23;20021;-66
2022/06/19 03:58:57;;;;;;;10.10;1.38;;;;;;;;;;6201446;23;20027;-67
2022/06/19 04:01:25;;;;;;;8.73;1.23;;;;;;;;;;6189221;23;20021;-66
2022/06/19 04:03:53;;;;;;;16.38;1.83;;;;;;;;;;6197184;23;20100;-66
2022/06/19 04:06:20;;;;;;;10.88;1.30;;;;;;;;;;6175714;23;20342;-66
2022/06/19 04:08:47;;;;;;;10.90;1.35;;;;;;;;;;6195867;23;20484;-66
2022/06/19 04:11:15;;;;;;;9.88;1.73;;;;;;;;;;6202363;23;20048;-66
2022/06/19 04:13:41;;;;;;;7.50;1.25;;;;;;;;;;6195005;23;20099;-66
2022/06/19 04:16:08;;;;;;;9.27;1.30;;;;;;;;;;6194249;23;20059;-66
2022/06/19 04:18:35;;;;;;;10.50;1.40;;;;;;;;;;6193664;23;20028;-66
2022/06/19 04:21:03;;;;;;;13.00;1.98;;;;;;;;;;6198985;23;20628;-66
2022/06/19 04:23:29;;;;;;;8.35;1.52;;;;;;;;;;6203152;23;20021;-67
2022/06/19 04:25:55;;;;;;;9.18;1.40;;;;;;;;;;6194535;23;20506;-67
2022/06/19 04:28:24;;;;;;;10.45;1.60;;;;;;;;;;6203191;23;20103;-67
2022/06/19 04:30:50;;;;;;;;;;;;;;;;;;6183876;23;20078;-66
2022/06/19 04:33:18;;;;;;;8.25;1.48;;;;;;;;;;6175526;23;20169;-66
2022/06/19 04:35:46;;;;;;;12.98;2.22;;;;;;;;;;6201943;23;20042;-67
2022/06/19 04:38:12;;;;;;;9.18;1.45;;;;;;;;;;6190714;23;20027;-66
2022/06/19 04:40:44;;;;;;;9.38;1.45;;;;;;;;;;6203206;23;20021;-66
2022/06/19 04:43:11;;;;;;;9.95;1.90;;;;;;;;;;6185911;22;20021;-67
2022/06/19 04:45:38;;;;;;;9.68;1.23;;;;;;;;;;6196816;23;20035;-66
2022/06/19 04:48:05;;;;;;;14.10;1.58;;;;;;;;;;6192826;23;20025;-66
2022/06/19 04:50:31;;;;;;;11.27;1.90;;;;;;;;;;6202464;23;20025;-68
2022/06/19 04:52:58;;;;;;;11.00;1.50;;;;;;;;;;6201633;23;20084;-66
2022/06/19 04:55:24;;;;;;;15.98;2.05;;;;;;;;;;6191119;23;20060;-66
2022/06/19 04:57:50;;;;;;;12.30;1.45;;;;;;;;;;6193649;23;20024;-67
2022/06/19 05:00:19;;;;;;;14.13;1.83;;;;;;;;;;6191858;23;20075;-66
2022/06/19 05:02:49;;;;;;;14.50;2.00;;;;;;;;;;6202505;23;20100;-67
2022/06/19 05:05:17;;;;;;;7.50;1.65;;;;;;;;;;6193232;23;20389;-66
2022/06/19 05:07:44;;;;;;;12.57;1.55;;;;;;;;;;6199818;23;20020;-66
2022/06/19 05:10:10;;;;;;;8.30;1.58;;;;;;;;;;6195132;23;20027;-66
2022/06/19 05:12:37;;;;;;;7.95;1.63;;;;;;;;;;6185398;22;20139;-66
2022/06/19 05:15:04;;;;;;;11.52;1.48;;;;;;;;;;6200047;23;20063;-66
2022/06/19 05:17:31;;;;;;;9.25;1.48;;;;;;;;;;6190841;22;20039;-66
2022/06/19 05:19:58;;;;;;;8.63;1.60;;;;;;;;;;6200963;23;20039;-65
2022/06/19 05:22:24;;;;;;;7.88;1.20;;;;;;;;;;6200447;23;20025;-66
2022/06/19 05:24:50;;;;;;;7.68;1.73;;;;;;;;;;6184537;23;20075;-66
2022/06/19 05:27:17;;;;;;;9.25;1.42;;;;;;;;;;6194598;23;20074;-66
2022/06/19 05:29:44;;;;;;;10.60;1.50;;;;;;;;;;6189748;23;20585;-65
2022/06/19 05:32:10;;;;;;;11.20;1.83;;;;;;;;;;6197738;23;20029;-66
2022/06/19 05:34:37;;;;;;;10.25;1.70;;;;;;;;;;6191430;23;20108;-65
2022/06/19 05:37:03;;;;;;;8.65;1.63;;;;;;;;;;6198335;23;20358;-67
2022/06/19 05:39:30;;;;;;;9.10;1.40;;;;;;;;;;6192006;23;20024;-66
2022/06/19 05:41:59;;;;;;;16.10;2.10;;;;;;;;;;6187384;23;20024;-67
2022/06/19 05:44:26;;;;;;;10.93;1.42;;;;;;;;;;6199494;23;20144;-67
2022/06/19 05:46:56;;;;;;;7.82;1.58;;;;;;;;;;6190097;23;20401;-66
2022/06/19 05:49:22;;;;;;;9.38;1.77;;;;;;;;;;6200352;23;20726;-65
2022/06/19 05:51:48;;;;;;;8.50;1.73;;;;;;;;;;6186393;23;20043;-65
2022/06/19 05:54:15;;;;;;;8.48;1.90;;;;;;;;;;6192502;23;20556;-65
2022/06/19 05:56:42;;;;;;;11.75;1.52;;;;;;;;;;6199956;23;20024;-65
2022/06/19 05:59:08;;;;;;;4.70;1.17;;;;;;;;;;6189652;22;20025;-67
2022/06/19 06:01:35;;;;;;;8.05;1.50;;;;;;;;;;6200422;23;20094;-66
2022/06/19 06:04:01;;;;;;;8.48;1.45;;;;;;;;;;6190725;23;20024;-66
2022/06/19 06:06:30;;;;;;;5.57;1.05;;;;;;;;;;6195223;23;20051;-66
2022/06/19 06:08:57;;;;;;;8.70;1.55;;;;;;;;;;6195098;23;20031;-66
2022/06/19 06:11:23;;;;;;;7.25;1.20;;;;;;;;;;6189402;23;20020;-66
2022/06/19 06:13:50;;;;;;;5.15;1.08;;;;;;;;;;6172664;23;20143;-66
2022/06/19 06:16:18;;;;;;;9.70;1.50;;;;;;;;;;6189375;23;20024;-66
2022/06/19 06:18:44;;;;;;;10.02;1.60;;;;;;;;;;6195954;23;20048;-66
2022/06/19 06:21:12;;;;;;;9.05;1.65;;;;;;;;;;6183255;23;20722;-66
2022/06/19 06:23:38;;;;;;;7.80;1.60;;;;;;;;;;6199512;23;20280;-66
2022/06/19 06:26:06;;;;;;;5.20;1.10;;;;;;;;;;6201382;23;20099;-66
2022/06/19 06:28:32;;;;;;;7.33;1.37;;;;;;;;;;6192137;22;20020;-66
2022/06/19 06:30:59;;;;;;;7.38;1.20;;;;;;;;;;6197245;23;20058;-66
2022/06/19 06:33:26;;;;;;;5.93;1.23;;;;;;;;;;6188038;23;20077;-67
2022/06/19 06:35:52;;;;;;;6.25;0.90;;;;;;;;;;6193474;23;20062;-66
2022/06/19 06:38:19;;;;;;;9.20;1.45;;;;;;;;;;6189404;23;20021;-68
2022/06/19 06:40:45;;;;;;;7.60;1.38;;;;;;;;;;6174050;23;20324;-66
2022/06/19 06:43:11;;;;;;;5.47;1.00;;;;;;;;;;6199126;23;20021;-66
2022/06/19 06:45:38;;;;;;;8.13;1.48;;;;;;;;;;6189771;23;20213;-66
2022/06/19 06:48:05;;;;;;;3.88;0.80;;;;;;;;;;6192950;23;20466;-67
2022/06/19 06:50:31;;;;;;;9.48;1.20;;;;;;;;;;6185469;23;20477;-66
2022/06/19 06:52:58;;;;;;;7.68;1.27;;;;;;;;;;6200087;23;20024;-67
2022/06/19 06:55:24;;;;;;;7.00;1.02;;;;;;;;;;6193695;22;20056;-66
2022/06/19 06:57:51;;;;;;;9.32;1.17;;;;;;;;;;6197738;23;21009;-66
2022/06/19 07:00:20;;;;;;;8.60;1.10;;;;;;;;;;6197444;23;20027;-66
2022/06/19 07:02:46;;;;;;;7.75;1.60;;;;;;;;;;6182983;23;20119;-66
2022/06/19 07:05:13;;;;;;;5.72;1.13;;;;;;;;;;6201233;23;20458;-67
2022/06/19 07:07:39;;;;;;;6.13;1.02;;;;;;;;;;6190932;23;20031;-66
2022/06/19 07:10:06;;;;;;;7.80;1.80;;;;;;;;;;6202084;23;20095;-66
2022/06/19 07:12:32;;;;;;;9.18;1.90;;;;;;;;;;6201255;23;20103;-66
2022/06/19 07:14:59;;;;;;;5.97;1.27;;;;;;;;;;6185945;23;20074;-67
2022/06/19 07:17:25;;;;;;;4.05;1.40;;;;;;;;;;6195969;23;20427;-67
2022/06/19 07:19:51;;;;;;;5.45;1.10;;;;;;;;;;6192062;23;20024;-67
2022/06/19 07:22:18;;;;;;;7.03;1.33;;;;;;;;;;6201781;23;20025;-66
2022/06/19 07:24:46;;;;;;;10.98;1.88;;;;;;;;;;6192341;23;20369;-67
2022/06/19 07:27:13;;;;;;;7.30;1.45;;;;;;;;;;6200128;23;20059;-67
2022/06/19 07:29:41;;;;;;;8.43;1.75;;;;;;;;;;6195265;23;20071;-67
2022/06/19 07:32:07;;;;;;;6.30;1.17;;;;;;;;;;6182986;23;20029;-66
2022/06/19 07:34:34;;;;;;;10.30;2.05;;;;;;;;;;6200757;23;20024;-66
2022/06/19 07:37:00;;;;;;;12.57;1.80;;;;;;;;;;6191608;23;20458;-66
2022/06/19 07:39:27;;;;;;;11.73;1.80;;;;;;;;;;6200253;23;20462;-66
2022/06/19 07:41:53;;;;;;;11.70;1.73;;;;;;;;;;6202385;23;20433;-66
2022/06/19 07:44:20;;;;;;;10.43;1.48;;;;;;;;;;6182472;23;20107;-65
2022/06/19 07:52:16;;;;;;;13.35;2.10;;;;;;;;;;6202743;23;20468;-67
2022/06/19 07:54:42;;;;;;;10.55;1.85;;;;;;;;;;6194212;22;20533;-66
2022/06/19 07:57:08;;;;;;;9.77;1.90;;;;;;;;;;6198510;23;20025;-66
2022/06/19 07:59:35;;;;;;;10.85;2.15;;;;;;;;;;6200944;23;20071;-66
2022/06/19 08:02:01;;;;;;;10.85;1.92;;;;;;;;;;6190056;23;20526;-66
2022/06/19 08:04:33;;;;;;;11.88;1.75;;;;;;;;;;6201420;23;20335;-66
2022/06/19 08:07:09;;;;;;;17.70;3.03;;;;;;;;;;6164278;23;20386;-63
2022/06/19 08:09:35;;;;;;;18.13;2.55;;;;;;;;;;6195671;23;20095;-63
2022/06/19 08:12:01;;;;;;;12.10;2.00;;;;;;;;;;6194777;23;20341;-63
2022/06/19 08:14:28;;;;;;;9.52;2.00;;;;;;;;;;6199679;23;20095;-63
2022/06/19 08:16:55;;;;;;;14.15;2.42;;;;;;;;;;6198903;23;20027;-63
2022/06/19 08:19:22;;;;;;;12.70;2.67;;;;;;;;;;6188562;23;20024;-63
2022/06/19 08:21:48;;;;;;;9.77;2.70;;;;;;;;;;6191126;23;20021;-64
2022/06/19 08:24:14;;;;;;;12.57;2.47;;;;;;;;;;6183167;23;20103;-63
2022/06/19 08:26:41;;;;;;;12.73;2.45;;;;;;;;;;6199121;23;20029;-63
2022/06/19 08:29:07;;;;;;;11.85;1.92;;;;;;;;;;6189960;23;20070;-63
2022/06/19 08:31:33;;;;;;;10.55;2.25;;;;;;;;;;6197532;23;20339;-64
2022/06/19 08:34:00;;;;;;;10.82;2.95;;;;;;;;;;6200085;23;20087;-63
2022/06/19 08:36:27;;;;;;;14.63;2.67;;;;;;;;;;6181889;22;20021;-63
2022/06/19 08:38:56;;;;;;;12.30;2.15;;;;;;;;;;6198477;23;20147;-63
2022/06/19 08:41:23;;;;;;;11.02;2.47;;;;;;;;;;6188401;23;20021;-64
2022/06/19 08:43:49;;;;;;;13.40;3.15;;;;;;;;;;6199758;23;20031;-64
2022/06/19 08:46:32;;;;;;;14.15;2.38;;;;;;;;;;6188608;23;20031;-64
2022/06/19 08:49:01;;;;;;;12.65;2.00;;;;;;;;;;6193152;23;20347;-64
2022/06/19 08:51:34;;;;;;;11.63;2.30;;;;;;;;;;6192839;23;20335;-66
2022/06/19 08:54:22;;;;;;;15.15;2.13;;;;;;;;;;6189880;23;20066;-64
2022/06/19 08:56:48;;;;;;;;;;;;;;;;;;6200185;23;20353;-65
2022/06/19 08:59:14;;;;;;;8.65;1.70;;;;;;;;;;6188669;23;20019;-65
2022/06/19 09:01:57;;;;;;;10.68;1.90;;;;;;;;;;6199966;23;20059;-65
2022/06/19 09:07:26;;;;;;;8.23;1.70;;;;;;;;;;6197655;23;20365;-65
2022/06/19 09:10:05;;;;;;;10.88;2.08;;;;;;;;;;6191836;22;20021;-64
2022/06/19 09:12:37;;;;;;;11.90;2.35;;;;;;;;;;6197041;23;20024;-65
2022/06/19 09:15:12;;;;;;;9.40;2.20;;;;;;;;;;6199118;23;20194;-64
2022/06/19 09:17:46;;;;;;;8.90;2.13;;;;;;;;;;6181094;22;20468;-64
2022/06/19 09:20:19;;;;;;;11.15;1.88;;;;;;;;;;6194017;23;20062;-65
2022/06/19 09:22:45;;;;;;;9.00;2.00;;;;;;;;;;6189052;23;20139;-65
2022/06/19 09:25:30;;;;;;;11.40;1.90;;;;;;;;;;6198091;23;20035;-64
2022/06/19 09:28:09;;;;;;;10.85;1.80;;;;;;;;;;6189205;22;20020;-65
2022/06/19 09:30:39;;;;;;;9.48;1.80;;;;;;;;;;6190576;23;20436;-65
2022/06/19 09:33:09;;;;;;;9.45;1.90;;;;;;;;;;6182349;22;20478;-65
2022/06/19 09:35:36;;;;;;;10.05;1.55;;;;;;;;;;6197532;23;20469;-64
2022/06/19 09:38:18;;;;;;;7.05;1.80;;;;;;;;;;6197780;23;20493;-64
2022/06/19 09:40:46;;;;;;;9.52;1.90;;;;;;;;;;6186627;22;20028;-64
2022/06/19 09:43:12;;;;;;;7.60;1.50;;;;;;;;;;6171045;23;20425;-65
2022/06/19 09:45:44;;;;;;;6.28;1.38;;;;;;;;;;6181758;23;20106;-65
2022/06/19 09:48:36;;;;;;;11.13;1.88;;;;;;;;;;6165934;23;20804;-66
2022/06/19 09:51:24;;;;;;;6.28;1.45;;;;;;;;;;6183805;23;20245;-65
2022/06/19 09:53:57;;;;;;;9.07;1.50;;;;;;;;;;6198778;23;20104;-65
2022/06/19 09:56:49;;;;;;;8.10;1.48;;;;;;;;;;6187803;22;20051;-66
2022/06/19 09:59:22;;;;;;;8.68;1.70;;;;;;;;;;6165578;23;20040;-65
2022/06/19 10:01:56;;;;;;;9.27;1.60;;;;;;;;;;6190869;23;20027;-66
2022/06/19 10:04:41;;;;;;;8.55;1.35;;;;;;;;;;6188046;23;20219;-66
2022/06/19 10:07:10;;;;;;;5.80;1.20;;;;;;;;;;6198677;23;20075;-65
2022/06/19 10:09:36;;;;;;;8.70;1.42;;;;;;;;;;6187020;22;20103;-66
2022/06/19 10:12:03;;;;;;;7.40;1.60;;;;;;;;;;6195319;23;20025;-66
2022/06/19 10:14:41;;;;;;;9.07;1.63;;;;;;;;;;6180828;23;20024;-65
2022/06/19 10:17:18;;;;;;;8.32;1.30;;;;;;;;;;6197861;23;20096;-65
2022/06/19 10:19:54;;;;;;;5.78;1.10;;;;;;;;;;6189194;22;20021;-65
2022/06/19 10:22:32;;;;;;;5.07;1.20;;;;;;;;;;6195546;23;20636;-65
2022/06/19 10:24:59;;;;;;;4.43;1.27;;;;;;;;;;6170049;23;20020;-65
2022/06/19 10:27:41;;;;;;;5.90;1.05;;;;;;;;;;6182006;23;20130;-65
2022/06/19 10:30:11;;;;;;;5.32;1.10;;;;;;;;;;6190824;23;20028;-65
2022/06/19 10:32:53;;;;;;;5.50;1.25;;;;;;;;;;6161540;23;20020;-65
2022/06/19 10:35:25;;;;;;;5.68;1.20;;;;;;;;;;6198717;23;20099;-66
2022/06/19 10:37:57;;;;;;;4.53;1.00;;;;;;;;;;6187678;23;20120;-67
2022/06/19 10:40:41;;;;;;;4.65;1.17;;;;;;;;;;6193032;23;20123;-66
2022/06/19 10:43:07;;;;;;;5.63;1.20;;;;;;;;;;6182547;22;20025;-66
2022/06/19 10:45:45;;;;;;;4.60;0.93;;;;;;;;;;6198456;23;20027;-67
2022/06/19 10:48:36;;;;;;;6.57;1.55;;;;;;;;;;6172451;23;20532;-67
2022/06/19 10:51:08;;;;;;;5.18;1.50;;;;;;;;;;6189474;23;20103;-66
2022/06/19 10:53:41;;;;;;;4.07;1.30;;;;;;;;;;6198637;23;20103;-65
2022/06/19 10:56:26;;;;;;;5.68;1.40;;;;;;;;;;6178836;23;20035;-65
2022/06/19 10:58:53;;;;;;;7.95;1.33;;;;;;;;;;6199640;23;20529;-66
2022/06/19 11:04:11;;;;;;;7.22;1.27;;;;;;;;;;6197997;23;20032;-64
2022/06/19 11:06:37;;;;;;;5.47;1.40;;;;;;;;;;6188997;22;20067;-65
2022/06/19 11:09:13;;;;;;;8.30;1.55;;;;;;;;;;6191887;23;20331;-65
2022/06/19 11:11:40;;;;;;;7.68;1.60;;;;;;;;;;6192640;23;20464;-65
2022/06/19 11:14:09;;;;;;;4.70;1.50;;;;;;;;;;6187642;23;20097;-64
2022/06/19 11:16:56;;;;;;;4.93;1.67;;;;;;;;;;6198570;23;20056;-65
2022/06/19 11:19:32;;;;;;;6.38;1.45;;;;;;;;;;6187230;23;20024;-65
2022/06/19 11:22:22;;;;;;;5.95;1.63;;;;;;;;;;6195118;23;20028;-65
2022/06/19 11:24:49;;;;;;;9.45;2.30;;;;;;;;;;6185036;22;20028;-64
2022/06/19 11:27:24;;;;;;;7.50;2.38;;;;;;;;;;6198665;23;20028;-66
2022/06/19 11:29:51;;;;;;;8.90;1.92;;;;;;;;;;6188962;22;20434;-66
2022/06/19 11:32:19;;;;;;;7.00;1.77;;;;;;;;;;6195171;23;20472;-64
2022/06/19 11:35:03;;;;;;;8.68;2.33;;;;;;;;;;6195520;23;20024;-65
2022/06/19 11:37:29;;;;;;;8.20;2.28;;;;;;;;;;6190428;23;20230;-65
2022/06/19 11:39:58;;;;;;;6.47;1.88;;;;;;;;;;6193119;23;20505;-66
2022/06/19 11:42:25;;;;;;;7.43;1.98;;;;;;;;;;6188018;23;20115;-65
2022/06/19 11:44:52;;;;;;;8.35;2.38;;;;;;;;;;6199604;23;20095;-65
2022/06/19 11:47:24;;;;;;;8.15;2.03;;;;;;;;;;6187934;23;20367;-66
2022/06/19 11:50:05;;;;;;;10.85;2.55;;;;;;;;;;6198538;23;20098;-65
2022/06/19 11:52:31;;;;;;;10.38;2.47;;;;;;;;;;6184838;23;20484;-66
2022/06/19 11:55:00;;;;;;;6.90;2.20;;;;;;;;;;6199019;23;20025;-66
2022/06/19 11:57:31;;;;;;;9.48;2.50;;;;;;;;;;6200197;23;20020;-66
2022/06/19 12:00:00;;;;;;;10.30;2.83;;;;;;;;;;6190514;23;20552;-66
2022/06/19 12:02:28;;;;;;;9.60;2.30;;;;;;;;;;6199132;23;20031;-66
2022/06/19 12:04:56;;;;;;;10.38;2.63;;;;;;;;;;6181995;23;20104;-65
2022/06/19 12:07:22;;;;;;;;;;;;;;;;;;6198885;23;20028;-65
2022/06/19 12:09:57;;;;;;;12.45;3.00;;;;;;;;;;6197908;23;20354;-65
2022/06/19 12:12:24;;;;;;;9.07;2.65;;;;;;;;;;6200074;23;20127;-65
2022/06/19 12:14:50;;;;;;;6.97;1.98;;;;;;;;;;6200496;23;20125;-66
2022/06/19 12:17:36;;;;;;;8.38;2.00;;;;;;;;;;6184599;23;20454;-65
2022/06/19 12:20:05;;;;;;;8.55;2.25;;;;;;;;;;6195799;23;20458;-65
2022/06/19 12:22:31;;;;;;;7.15;1.98;;;;;;;;;;6190348;23;20033;-66
2022/06/19 12:25:07;;;;;;;8.70;2.10;;;;;;;;;;6201080;23;20062;-65
2022/06/19 12:27:37;;;;;;;7.05;1.45;;;;;;;;;;6191187;23;20046;-66
2022/06/19 12:30:05;;;;;;;6.32;1.80;;;;;;;;;;6195687;23;20105;-65
2022/06/19 12:32:36;;;;;;;7.95;1.80;;;;;;;;;;6190208;23;20028;-65
2022/06/19 12:35:07;;;;;;;5.25;1.65;;;;;;;;;;6189986;22;20488;-66
2022/06/19 12:37:33;;;;;;;6.30;1.92;;;;;;;;;;6198735;23;20481;-66
2022/06/19 12:40:02;;;;;;;9.32;2.08;;;;;;;;;;6189853;23;20029;-65
2022/06/19 12:42:49;;;;;;;11.50;2.63;;;;;;;;;;6199676;23;20063;-66
2022/06/19 12:45:35;;;;;;;11.00;2.42;;;;;;;;;;6184004;22;20031;-65
2022/06/19 12:48:14;;;;;;;11.90;2.40;;;;;;;;;;6194326;23;20465;-66
2022/06/19 12:50:53;;;;;;;10.38;2.35;;;;;;;;;;6198769;23;20095;-67
2022/06/19 12:53:38;;;;;;;12.40;2.53;;;;;;;;;;6198265;23;20099;-65
2022/06/19 12:56:04;;;;;;;7.80;2.08;;;;;;;;;;6200212;23;20039;-65
2022/06/19 12:58:38;;;;;;;9.00;2.50;;;;;;;;;;6184974;22;20075;-65
2022/06/19 13:01:04;;;;;;;6.90;2.00;;;;;;;;;;6193481;23;20143;-65
2022/06/19 13:03:49;;;;;;;8.02;2.40;;;;;;;;;;6189319;23;20103;-65
2022/06/19 13:06:19;;;;;;;8.73;2.35;;;;;;;;;;6197880;23;20024;-66
2022/06/19 13:08:49;;;;;;;7.97;2.55;;;;;;;;;;6190459;23;20021;-65
2022/06/19 13:11:15;;;;;;;6.90;2.30;;;;;;;;;;6198234;23;20509;-66
2022/06/19 13:13:53;;;;;;;8.07;2.30;;;;;;;;;;6193124;23;20155;-66
2022/06/19 13:16:24;;;;;;;7.80;2.28;;;;;;;;;;6184480;23;20059;-66
2022/06/19 13:18:55;;;;;;;3.92;1.83;;;;;;;;;;6198909;23;20051;-67
2022/06/19 13:21:54;;;;;;;8.43;2.42;;;;;;;;;;6189091;23;20116;-66
2022/06/19 13:24:21;;;;;;;6.22;2.05;;;;;;;;;;6148366;23;20075;-66
2022/06/19 13:27:11;;;;;;;7.10;1.92;;;;;;;;;;6184703;23;20107;-67
2022/06/19 13:29:37;;;;;;;7.80;1.95;;;;;;;;;;6192830;23;20351;-65
2022/06/19 13:32:26;;;;;;;9.63;1.80;;;;;;;;;;6188884;23;20476;-66
2022/06/19 13:34:56;;;;;;;9.55;2.05;;;;;;;;;;6199767;23;20043;-65
2022/06/19 13:37:37;;;;;;;7.75;1.63;;;;;;;;;;6198628;23;20116;-66
2022/06/19 13:40:12;;;;;;;7.43;1.80;;;;;;;;;;6196332;23;20116;-65
2022/06/19 13:42:48;;;;;;;6.60;1.90;;;;;;;;;;6201155;23;20026;-66
2022/06/19 13:45:24;;;;;;;6.40;1.50;;;;;;;;;;6191654;23;20135;-66
2022/06/19 13:47:57;;;;;;;6.45;1.60;;;;;;;;;;6200961;23;20116;-66
2022/06/19 13:50:31;;;;;;;6.78;1.48;;;;;;;;;;6188131;22;20103;-66
2022/06/19 13:53:02;;;;;;;6.95;1.88;;;;;;;;;;6191337;23;20441;-65
2022/06/19 13:55:28;;;;;;;3.95;1.60;;;;;;;;;;6187664;23;20021;-65
2022/06/19 13:58:00;;;;;;;7.30;1.60;;;;;;;;;;6199071;23;20025;-66
2022/06/19 14:00:39;;;;;;;7.53;1.50;;;;;;;;;;6198456;23;20401;-65
2022/06/19 14:03:12;;;;;;;6.50;1.50;;;;;;;;;;6189115;23;20032;-65
2022/06/19 14:05:40;;;;;;;7.43;1.65;;;;;;;;;;6193256;23;20025;-65
2022/06/19 14:08:15;;;;;;;7.50;1.52;;;;;;;;;;6181899;23;20028;-66
2022/06/19 14:10:41;;;;;;;5.22;1.45;;;;;;;;;;6199057;23;20025;-66
2022/06/19 14:13:19;;;;;;;6.03;1.60;;;;;;;;;;6188669;23;20100;-64
2022/06/19 14:15:45;;;;;;;10.60;1.83;;;;;;;;;;6199931;23;20280;-65
2022/06/19 14:18:30;;;;;;;5.90;1.73;;;;;;;;;;6197954;23;20104;-65
2022/06/19 14:21:00;;;;;;;8.80;1.80;;;;;;;;;;6191260;23;20024;-65
2022/06/19 14:23:33;;;;;;;10.13;1.90;;;;;;;;;;6199100;23;20103;-65
2022/06/19 14:26:03;;;;;;;8.68;2.25;;;;;;;;;;6161975;23;20123;-65
2022/06/19 14:29:01;;;;;;;8.13;1.83;;;;;;;;;;6199061;23;20020;-64
2022/06/19 14:31:28;;;;;;;9.18;1.83;;;;;;;;;;6137113;23;20031;-64
2022/06/19 14:33:54;;;;;;;7.97;2.05;;;;;;;;;;6194406;23;20025;-63
2022/06/19 14:36:22;;;;;;;4.25;1.70;;;;;;;;;;6181301;23;20453;-64
2022/06/19 14:38:49;;;;;;;8.33;1.90;;;;;;;;;;6199697;23;20021;-63
2022/06/19 14:41:18;;;;;;;6.47;1.85;;;;;;;;;;6198756;23;20020;-64
2022/06/19 14:44:02;;;;;;;8.18;1.80;;;;;;;;;;6189134;23;20024;-63
2022/06/19 14:46:41;;;;;;;5.25;1.45;;;;;;;;;;6195621;23;20347;-61
2022/06/19 14:49:18;;;;;;;5.93;1.67;;;;;;;;;;6181825;23;20027;-64
2022/06/19 14:52:00;;;;;;;8.33;1.60;;;;;;;;;;6199001;23;20032;-64
2022/06/19 14:54:45;;;;;;;8.40;1.70;;;;;;;;;;6189178;23;20030;-64
2022/06/19 14:57:22;;;;;;;8.02;2.10;;;;;;;;;;6198446;23;20028;-64
2022/06/19 14:59:59;;;;;;;7.55;1.80;;;;;;;;;;6188821;22;20749;-63
2022/06/19 15:02:30;;;;;;;7.55;1.98;;;;;;;;;;6189508;23;20529;-63
2022/06/19 15:05:05;;;;;;;6.88;1.60;;;;;;;;;;6197848;23;20031;-63
2022/06/19 15:07:33;;;;;;;5.15;1.83;;;;;;;;;;6197652;23;20024;-64
2022/06/19 15:10:05;;;;;;;7.27;1.80;;;;;;;;;;6199553;23;20027;-64
2022/06/19 15:12:32;;;;;;;3.97;1.38;;;;;;;;;;6188128;23;20140;-63